createdAt,value
2019-02-17T00:01:03.655Z,4.40
2019-02-17T00:03:33.001Z,4.30
2019-02-17T00:06:03.041Z,4.30
2019-02-17T00:08:33.000Z,4.20
2019-02-17T00:11:02.629Z,4.20
2019-02-17T00:13:32.246Z,4.20
2019-02-17T00:16:01.725Z,4.10
2019-02-17T00:18:31.354Z,3.90
2019-02-17T00:21:00.967Z,3.80
2019-02-17T00:23:30.660Z,3.70
2019-02-17T00:26:00.338Z,3.70
2019-02-17T00:28:29.942Z,3.80
2019-02-17T00:30:59.953Z,4.00
2019-02-17T00:33:29.233Z,4.00
2019-02-17T00:35:58.624Z,3.90
2019-02-17T00:38:28.564Z,3.80
2019-02-17T00:40:57.920Z,3.70
2019-02-17T00:43:27.389Z,3.60
2019-02-17T00:45:56.755Z,3.60
2019-02-17T00:48:26.450Z,3.60
2019-02-17T00:50:55.730Z,3.50
2019-02-17T00:53:24.987Z,3.50
2019-02-17T00:55:54.245Z,3.40
2019-02-17T00:58:23.890Z,3.30
2019-02-17T01:00:53.213Z,3.30
2019-02-17T01:03:22.481Z,3.10
2019-02-17T01:05:52.144Z,3.00
2019-02-17T01:08:21.468Z,2.90
2019-02-17T01:10:50.687Z,3.00
2019-02-17T01:13:20.600Z,3.20
2019-02-17T01:15:50.197Z,3.10
2019-02-17T01:18:19.556Z,3.10
2019-02-17T01:20:49.598Z,3.10
2019-02-17T01:23:18.868Z,3.00
2019-02-17T01:25:48.568Z,3.00
2019-02-17T01:28:17.925Z,3.10
2019-02-17T01:30:47.375Z,3.20
2019-02-17T01:33:16.865Z,3.20
2019-02-17T01:35:46.465Z,3.10
2019-02-17T01:38:15.809Z,3.00
2019-02-17T01:40:45.177Z,3.00
2019-02-17T01:43:14.532Z,3.00
2019-02-17T01:45:43.832Z,3.00
2019-02-17T01:48:13.631Z,2.90
2019-02-17T01:50:42.926Z,2.80
2019-02-17T01:53:12.183Z,2.80
2019-02-17T01:55:41.424Z,2.70
2019-02-17T01:58:10.702Z,2.70
2019-02-17T02:00:39.975Z,2.70
2019-02-17T02:03:09.323Z,2.80
2019-02-17T02:05:38.969Z,2.80
2019-02-17T02:08:08.267Z,2.90
2019-02-17T02:10:37.577Z,2.80
2019-02-17T02:13:07.230Z,2.90
2019-02-17T02:15:36.540Z,2.90
2019-02-17T02:18:05.879Z,2.80
2019-02-17T02:20:35.128Z,2.80
2019-02-17T02:23:04.393Z,2.80
2019-02-17T02:25:34.252Z,2.80
2019-02-17T02:28:03.526Z,2.80
2019-02-17T02:30:32.783Z,2.70
2019-02-17T02:33:02.150Z,2.60
2019-02-17T02:35:31.449Z,2.60
2019-02-17T02:38:00.728Z,2.50
2019-02-17T02:40:30.323Z,2.60
2019-02-17T02:42:59.584Z,2.60
2019-02-17T02:45:28.960Z,2.60
2019-02-17T02:47:58.572Z,2.50
2019-02-17T02:50:27.800Z,2.40
2019-02-17T02:52:57.316Z,2.30
2019-02-17T02:55:26.684Z,2.30
2019-02-17T02:57:55.908Z,2.40
2019-02-17T03:00:25.271Z,2.40
2019-02-17T03:02:54.594Z,2.30
2019-02-17T03:05:23.857Z,2.20
2019-02-17T03:07:53.235Z,2.20
2019-02-17T03:10:22.835Z,2.20
2019-02-17T03:12:52.173Z,2.20
2019-02-17T03:15:21.519Z,2.20
2019-02-17T03:17:51.157Z,2.30
2019-02-17T03:20:20.609Z,2.30
2019-02-17T03:22:49.930Z,2.30
2019-02-17T03:25:19.269Z,2.40
2019-02-17T03:27:48.539Z,2.60
2019-02-17T03:30:17.866Z,2.90
2019-02-17T03:32:47.245Z,2.90
2019-02-17T03:35:16.586Z,2.90
2019-02-17T03:37:46.288Z,2.90
2019-02-17T03:40:15.547Z,2.80
2019-02-17T03:42:44.779Z,2.80
2019-02-17T03:45:14.393Z,2.80
2019-02-17T03:47:43.643Z,2.70
2019-02-17T03:50:12.908Z,2.70
2019-02-17T03:52:42.249Z,2.80
2019-02-17T03:55:11.592Z,2.80
2019-02-17T03:57:41.182Z,2.80
2019-02-17T04:00:17.097Z,2.80
2019-02-17T04:02:41.758Z,2.60
2019-02-17T04:05:11.057Z,2.50
2019-02-17T04:07:40.296Z,2.60
2019-02-17T04:10:09.659Z,2.50
2019-02-17T04:12:39.473Z,2.50
2019-02-17T04:15:08.964Z,2.60
2019-02-17T04:17:38.578Z,2.50
2019-02-17T04:20:08.282Z,2.40
2019-02-17T04:22:37.812Z,2.40
2019-02-17T04:25:07.113Z,2.40
2019-02-17T04:27:36.440Z,2.40
2019-02-17T04:30:05.902Z,2.40
2019-02-17T04:32:35.230Z,2.40
2019-02-17T04:35:04.899Z,2.30
2019-02-17T04:37:34.152Z,2.20
2019-02-17T04:40:03.385Z,2.10
2019-02-17T04:42:32.753Z,2.10
2019-02-17T04:45:02.256Z,2.00
2019-02-17T04:47:31.527Z,1.90
2019-02-17T04:50:00.847Z,1.90
2019-02-17T04:52:30.118Z,1.80
2019-02-17T04:54:59.448Z,1.70
2019-02-17T04:57:29.062Z,1.70
2019-02-17T04:59:58.665Z,1.60
2019-02-17T05:02:28.236Z,1.60
2019-02-17T05:04:57.549Z,1.60
2019-02-17T05:07:26.824Z,1.50
2019-02-17T05:09:56.456Z,1.40
2019-02-17T05:12:26.014Z,1.20
2019-02-17T05:14:55.350Z,1.30
2019-02-17T05:17:24.678Z,1.20
2019-02-17T05:19:54.038Z,1.10
2019-02-17T05:22:23.436Z,1.10
2019-02-17T05:24:52.757Z,1.00
2019-02-17T05:27:22.090Z,1.00
2019-02-17T05:29:51.411Z,0.90
2019-02-17T05:32:20.958Z,1.10
2019-02-17T05:34:50.281Z,1.10
2019-02-17T05:37:19.936Z,1.10
2019-02-17T05:39:49.252Z,1.10
2019-02-17T05:42:18.798Z,1.00
2019-02-17T05:44:48.313Z,1.10
2019-02-17T05:47:17.658Z,1.10
2019-02-17T05:49:46.914Z,0.90
2019-02-17T05:52:16.447Z,1.20
2019-02-17T05:54:46.408Z,1.10
2019-02-17T05:57:16.058Z,1.20
2019-02-17T05:59:45.673Z,1.10
2019-02-17T06:02:15.294Z,1.10
2019-02-17T06:04:44.548Z,1.10
2019-02-17T06:07:13.812Z,1.20
2019-02-17T06:09:43.151Z,1.10
2019-02-17T06:12:12.787Z,0.90
2019-02-17T06:14:42.723Z,0.90
2019-02-17T06:17:12.134Z,0.90
2019-02-17T06:19:41.475Z,1.10
2019-02-17T06:22:11.139Z,1.10
2019-02-17T06:24:40.386Z,1.10
2019-02-17T06:27:09.684Z,1.10
2019-02-17T06:29:38.977Z,1.00
2019-02-17T06:32:08.631Z,1.00
2019-02-17T06:34:37.984Z,1.00
2019-02-17T06:37:07.742Z,1.10
2019-02-17T06:39:37.073Z,1.10
2019-02-17T06:42:06.421Z,1.20
2019-02-17T06:44:35.708Z,1.10
2019-02-17T06:47:06.922Z,1.10
2019-02-17T06:49:36.217Z,1.30
2019-02-17T06:52:05.469Z,1.40
2019-02-17T06:54:34.714Z,1.40
2019-02-17T06:57:12.653Z,1.50
2019-02-17T06:59:42.217Z,1.60
2019-02-17T07:02:11.575Z,1.60
2019-02-17T07:04:59.918Z,1.70
2019-02-17T07:07:29.246Z,1.80
2019-02-17T07:09:58.612Z,1.80
2019-02-17T07:12:27.935Z,1.80
2019-02-17T07:14:57.536Z,1.80
2019-02-17T07:17:27.175Z,1.90
2019-02-17T07:19:56.466Z,1.90
2019-02-17T07:22:25.875Z,2.00
2019-02-17T07:24:55.254Z,2.00
2019-02-17T07:27:24.610Z,2.10
2019-02-17T07:29:53.956Z,2.20
2019-02-17T07:32:23.487Z,2.30
2019-02-17T07:34:53.178Z,2.40
2019-02-17T07:37:32.763Z,2.50
2019-02-17T07:39:54.052Z,2.50
2019-02-17T07:42:23.376Z,2.60
2019-02-17T07:44:52.755Z,2.70
2019-02-17T07:47:22.410Z,2.80
2019-02-17T07:49:52.064Z,2.90
2019-02-17T07:52:22.200Z,3.00
2019-02-17T07:54:51.581Z,3.00
2019-02-17T07:57:21.139Z,3.00
2019-02-17T07:59:50.506Z,3.10
2019-02-17T08:02:19.791Z,3.10
2019-02-17T08:04:49.332Z,3.20
2019-02-17T08:07:19.289Z,3.20
2019-02-17T08:09:48.940Z,3.30
2019-02-17T08:12:18.472Z,3.40
2019-02-17T08:14:47.830Z,3.50
2019-02-17T08:17:17.454Z,3.60
2019-02-17T08:19:46.811Z,3.60
2019-02-17T08:22:16.817Z,3.80
2019-02-17T08:24:46.176Z,3.80
2019-02-17T08:27:15.564Z,3.90
2019-02-17T08:29:44.861Z,4.00
2019-02-17T08:32:14.280Z,4.00
2019-02-17T08:34:43.553Z,4.10
2019-02-17T08:37:13.228Z,4.20
2019-02-17T08:39:42.855Z,4.40
2019-02-17T08:42:12.108Z,4.40
2019-02-17T08:44:41.732Z,4.50
2019-02-17T08:47:11.347Z,4.60
2019-02-17T08:49:40.967Z,4.70
2019-02-17T08:52:10.878Z,4.80
2019-02-17T08:54:40.235Z,4.80
2019-02-17T08:57:09.489Z,5.00
2019-02-17T08:59:38.842Z,5.00
2019-02-17T09:02:08.176Z,5.10
2019-02-17T09:04:37.532Z,5.30
2019-02-17T09:07:07.221Z,5.30
2019-02-17T09:09:36.909Z,5.50
2019-02-17T09:12:06.162Z,5.60
2019-02-17T09:14:35.505Z,5.70
2019-02-17T09:17:05.107Z,5.80
2019-02-17T09:19:34.441Z,5.90
2019-02-17T09:22:03.993Z,6.00
2019-02-17T09:24:33.340Z,6.10
2019-02-17T09:27:02.884Z,6.20
2019-02-17T09:29:32.499Z,6.40
2019-02-17T09:32:02.365Z,6.50
2019-02-17T09:34:31.626Z,6.60
2019-02-17T09:37:00.971Z,6.70
2019-02-17T09:39:30.577Z,6.90
2019-02-17T09:42:00.112Z,7.00
2019-02-17T09:44:29.775Z,7.10
2019-02-17T09:46:59.389Z,7.20
2019-02-17T09:49:28.805Z,7.30
2019-02-17T09:51:58.455Z,7.40
2019-02-17T09:54:28.067Z,7.50
2019-02-17T09:56:57.440Z,7.60
2019-02-17T09:59:26.963Z,7.70
2019-02-17T10:01:56.616Z,7.90
2019-02-17T10:04:25.936Z,8.00
2019-02-17T10:06:55.886Z,8.00
2019-02-17T10:09:25.260Z,8.10
2019-02-17T10:11:54.844Z,8.20
2019-02-17T10:14:24.282Z,8.30
2019-02-17T10:16:53.650Z,8.50
2019-02-17T10:19:23.089Z,8.50
2019-02-17T10:21:52.688Z,8.60
2019-02-17T10:24:22.008Z,8.70
2019-02-17T10:26:51.624Z,8.80
2019-02-17T10:29:20.911Z,9.00
2019-02-17T10:31:50.297Z,9.00
2019-02-17T10:34:19.921Z,9.20
2019-02-17T10:36:49.194Z,9.30
2019-02-17T10:39:18.589Z,9.40
2019-02-17T10:41:48.122Z,9.60
2019-02-17T10:44:17.469Z,9.60
2019-02-17T10:46:46.731Z,9.70
2019-02-17T10:49:16.650Z,9.80
2019-02-17T10:51:46.250Z,9.90
2019-02-17T10:54:16.056Z,9.90
2019-02-17T10:56:45.321Z,10.00
2019-02-17T10:59:15.199Z,10.10
2019-02-17T11:01:44.444Z,10.20
2019-02-17T11:04:13.872Z,10.40
2019-02-17T11:06:43.235Z,10.50
2019-02-17T11:09:25.899Z,10.50
2019-02-17T11:11:55.301Z,10.70
2019-02-17T11:14:24.933Z,10.80
2019-02-17T11:16:54.198Z,10.90
2019-02-17T11:19:23.561Z,11.00
2019-02-17T11:21:52.812Z,11.10
2019-02-17T11:24:22.440Z,11.10
2019-02-17T11:26:52.207Z,11.20
2019-02-17T11:29:21.497Z,11.40
2019-02-17T11:31:50.783Z,11.50
2019-02-17T11:34:20.154Z,11.60
2019-02-17T11:36:49.404Z,11.60
2019-02-17T11:39:20.166Z,11.60
2019-02-17T11:41:49.861Z,11.80
2019-02-17T11:44:19.239Z,11.90
2019-02-17T11:46:48.890Z,11.90
2019-02-17T11:49:18.810Z,12.00
2019-02-17T11:51:48.517Z,12.10
2019-02-17T11:54:18.137Z,12.20
2019-02-17T11:56:47.405Z,12.50
2019-02-17T11:59:16.772Z,12.60
2019-02-17T12:01:46.023Z,12.60
2019-02-17T12:04:15.390Z,12.70
2019-02-17T12:06:44.734Z,12.60
2019-02-17T12:09:14.117Z,12.60
2019-02-17T12:11:43.462Z,12.80
2019-02-17T12:14:13.005Z,12.90
2019-02-17T12:16:42.341Z,13.00
2019-02-17T12:19:11.707Z,13.00
2019-02-17T12:21:58.929Z,13.00
2019-02-17T12:24:35.817Z,13.20
2019-02-17T12:27:09.447Z,13.20
2019-02-17T12:29:44.110Z,13.40
2019-02-17T12:32:13.487Z,13.40
2019-02-17T12:34:42.787Z,13.60
2019-02-17T12:37:12.040Z,13.70
2019-02-17T12:39:41.682Z,13.70
2019-02-17T12:42:11.351Z,13.80
2019-02-17T12:44:40.680Z,13.90
2019-02-17T12:47:10.012Z,14.00
2019-02-17T12:49:39.567Z,14.10
2019-02-17T12:52:09.157Z,14.10
2019-02-17T12:54:38.439Z,14.10
2019-02-17T12:57:08.086Z,14.20
2019-02-17T12:59:37.438Z,14.20
2019-02-17T13:02:06.764Z,14.20
2019-02-17T13:04:36.057Z,14.30
2019-02-17T13:07:05.499Z,14.40
2019-02-17T13:09:34.974Z,14.50
2019-02-17T13:12:04.322Z,14.50
2019-02-17T13:17:25.651Z,14.60
2019-02-17T13:20:06.744Z,14.80
2019-02-17T13:22:46.284Z,14.80
2019-02-17T13:25:35.407Z,14.80
2019-02-17T13:28:24.185Z,14.80
2019-02-17T13:31:12.633Z,14.80
2019-02-17T13:36:57.076Z,15.10
2019-02-17T13:39:45.683Z,15.10
2019-02-17T13:42:34.109Z,15.00
2019-02-17T13:45:22.603Z,15.00
2019-02-17T13:48:11.461Z,15.10
2019-02-17T13:51:00.216Z,15.10
2019-02-17T13:53:48.666Z,15.00
2019-02-17T13:56:37.106Z,15.00
2019-02-17T13:59:25.760Z,15.00
2019-02-17T14:01:55.094Z,15.00
2019-02-17T14:04:43.579Z,14.90
2019-02-17T14:07:12.906Z,15.00
2019-02-17T14:09:42.318Z,15.00
2019-02-17T14:12:30.755Z,14.90
2019-02-17T14:15:00.294Z,15.10
2019-02-17T14:17:50.873Z,15.00
2019-02-17T14:20:39.258Z,15.00
2019-02-17T14:23:27.986Z,15.00
2019-02-17T14:26:16.450Z,15.00
2019-02-17T14:29:04.893Z,14.90
2019-02-17T14:31:53.349Z,15.00
2019-02-17T14:34:42.136Z,15.00
2019-02-17T14:37:48.081Z,15.10
2019-02-17T14:40:36.824Z,15.10
2019-02-17T14:43:25.819Z,15.10
2019-02-17T14:46:15.157Z,15.10
2019-02-17T14:49:03.605Z,15.20
2019-02-17T14:54:40.775Z,15.20
2019-02-17T14:57:29.211Z,15.20
2019-02-17T15:00:17.917Z,15.20
2019-02-17T15:03:06.352Z,15.20
2019-02-17T15:05:53.964Z,15.10
2019-02-17T15:08:34.728Z,15.20
2019-02-17T15:11:16.112Z,15.20
2019-02-17T15:13:58.955Z,15.10
2019-02-17T15:22:54.412Z,15.10
2019-02-17T15:25:35.901Z,15.00
2019-02-17T15:28:16.849Z,15.00
2019-02-17T15:30:58.750Z,14.80
2019-02-17T15:36:58.818Z,14.60
2019-02-17T15:39:40.697Z,14.50
2019-02-17T15:42:22.442Z,14.50
2019-02-17T15:45:04.049Z,14.50
2019-02-17T15:51:06.484Z,14.50
2019-02-17T15:53:47.010Z,14.40
2019-02-17T15:56:28.250Z,14.40
2019-02-17T15:58:57.682Z,14.40
2019-02-17T16:01:46.103Z,14.30
2019-02-17T16:04:34.870Z,14.20
2019-02-17T16:07:23.569Z,14.10
2019-02-17T16:13:13.724Z,13.80
2019-02-17T16:15:43.205Z,13.70
2019-02-17T16:21:01.615Z,13.60
2019-02-17T16:23:50.010Z,13.30
2019-02-17T16:26:19.715Z,13.30
2019-02-17T16:31:37.841Z,13.30
2019-02-17T16:34:26.263Z,13.10
2019-02-17T16:37:14.720Z,13.00
2019-02-17T16:40:03.180Z,12.70
2019-02-17T16:42:51.886Z,12.50
2019-02-17T16:45:40.244Z,12.20
2019-02-17T16:48:28.673Z,12.20
2019-02-17T16:51:17.346Z,12.00
2019-02-17T16:54:05.788Z,12.00
2019-02-17T16:56:54.537Z,12.00
2019-02-17T16:59:43.264Z,11.80
2019-02-17T17:05:43.664Z,11.40
2019-02-17T17:08:24.625Z,11.20
2019-02-17T17:14:10.748Z,10.90
2019-02-17T17:16:52.378Z,10.80
2019-02-17T17:19:33.960Z,10.60
2019-02-17T17:25:20.268Z,10.10
2019-02-17T17:28:01.601Z,9.80
2019-02-17T17:30:43.531Z,9.60
2019-02-17T17:33:24.338Z,9.60
2019-02-17T17:36:05.240Z,9.50
2019-02-17T17:38:46.245Z,9.40
2019-02-17T17:41:26.868Z,9.30
2019-02-17T17:44:07.626Z,9.10
2019-02-17T17:46:36.966Z,9.10
2019-02-17T17:49:25.381Z,9.10
2019-02-17T17:52:14.055Z,9.20
2019-02-17T17:58:46.660Z,9.00
2019-02-17T18:01:16.614Z,8.90
2019-02-17T18:07:35.504Z,8.80
2019-02-17T18:13:35.859Z,8.40
2019-02-17T18:16:17.157Z,8.30
2019-02-17T18:18:58.218Z,8.10
2019-02-17T18:21:27.935Z,7.90
2019-02-17T18:24:16.696Z,8.00
2019-02-17T18:27:05.405Z,8.10
2019-02-17T18:29:53.826Z,8.00
2019-02-17T18:32:42.388Z,8.10
2019-02-17T18:35:30.795Z,7.90
2019-02-17T18:38:19.788Z,7.80
2019-02-17T18:41:08.309Z,7.70
2019-02-17T18:43:56.764Z,7.70
2019-02-17T18:50:15.580Z,7.70
2019-02-17T18:53:04.015Z,7.60
2019-02-17T18:55:52.717Z,7.50
2019-02-17T18:58:41.185Z,7.40
2019-02-17T19:01:47.389Z,7.20
2019-02-17T19:04:53.572Z,7.20
2019-02-17T19:07:42.018Z,7.10
2019-02-17T19:10:22.937Z,7.10
2019-02-17T19:13:02.466Z,7.10
2019-02-17T19:15:50.809Z,7.00
2019-02-17T19:18:39.480Z,7.10
2019-02-17T19:21:27.822Z,7.10
2019-02-17T19:24:16.566Z,7.10
2019-02-17T19:27:05.099Z,7.10
2019-02-17T19:29:53.539Z,7.30
2019-02-17T19:32:41.205Z,7.70
2019-02-17T19:35:29.957Z,7.60
2019-02-17T19:38:18.838Z,7.70
2019-02-17T19:41:07.240Z,8.00
2019-02-17T19:43:55.830Z,8.10
2019-02-17T19:46:44.936Z,8.30
2019-02-17T19:49:34.629Z,8.20
2019-02-17T19:52:23.045Z,8.50
2019-02-17T19:55:11.478Z,8.40
2019-02-17T19:57:59.943Z,8.20
2019-02-17T20:00:48.282Z,8.30
2019-02-17T20:03:36.535Z,8.30
2019-02-17T20:06:26.489Z,8.30
2019-02-17T20:09:11.243Z,8.30
2019-02-17T20:11:52.430Z,8.00
2019-02-17T20:14:33.948Z,7.80
2019-02-17T20:17:16.028Z,7.70
2019-02-17T20:19:57.394Z,7.50
2019-02-17T20:22:38.101Z,7.40
2019-02-17T20:25:19.039Z,7.40
2019-02-17T20:28:00.596Z,7.40
2019-02-17T20:30:42.009Z,7.50
2019-02-17T20:33:22.952Z,7.40
2019-02-17T20:36:04.441Z,7.50
2019-02-17T20:38:45.995Z,7.50
2019-02-17T20:44:46.900Z,7.00
2019-02-17T20:47:28.646Z,6.90
2019-02-17T20:50:10.476Z,6.90
2019-02-17T20:52:51.721Z,6.70
2019-02-17T20:55:33.171Z,6.70
2019-02-17T20:58:13.909Z,6.50
2019-02-17T21:00:54.804Z,6.30
2019-02-17T21:03:35.470Z,6.10
2019-02-17T21:06:16.417Z,6.00
2019-02-17T21:08:57.512Z,5.80
2019-02-17T21:14:58.579Z,6.20
2019-02-17T21:17:40.097Z,6.20
2019-02-17T21:23:27.528Z,5.80
2019-02-17T21:26:09.023Z,5.90
2019-02-17T21:28:50.460Z,5.70
2019-02-17T21:31:31.468Z,5.60
2019-02-17T21:34:13.066Z,5.50
2019-02-17T21:36:53.976Z,5.40
2019-02-17T21:39:34.770Z,5.20
2019-02-17T21:42:16.318Z,5.20
2019-02-17T21:44:46.119Z,5.20
2019-02-17T21:47:34.947Z,5.10
2019-02-17T21:50:04.625Z,5.10
2019-02-17T21:52:53.182Z,5.10
2019-02-17T21:55:41.633Z,5.20
2019-02-17T21:58:30.176Z,5.00
2019-02-17T22:01:18.606Z,4.90
2019-02-17T22:04:07.019Z,4.70
2019-02-17T22:06:55.800Z,4.60
2019-02-17T22:09:37.092Z,4.60
2019-02-17T22:12:06.455Z,4.60
2019-02-17T22:14:54.904Z,4.60
2019-02-17T22:17:43.361Z,4.80
2019-02-17T22:20:31.815Z,4.80
2019-02-17T22:23:20.242Z,4.90
2019-02-17T22:26:09.047Z,4.90
2019-02-17T22:28:57.530Z,4.80
2019-02-17T22:31:46.007Z,4.70
2019-02-17T22:34:34.444Z,4.80
2019-02-17T22:37:22.918Z,4.70
2019-02-17T22:40:11.346Z,4.90
2019-02-17T22:42:59.789Z,4.60
2019-02-17T22:45:48.520Z,4.60
2019-02-17T22:48:37.253Z,4.70
2019-02-17T22:51:26.008Z,4.60
2019-02-17T22:54:14.486Z,4.80
2019-02-17T22:57:03.206Z,4.80
2019-02-17T22:59:51.903Z,4.80
2019-02-17T23:02:40.359Z,4.60
2019-02-17T23:05:29.391Z,4.70
2019-02-17T23:08:17.847Z,4.50
2019-02-17T23:11:06.291Z,4.40
2019-02-17T23:13:54.836Z,4.60
2019-02-17T23:16:43.288Z,4.80
2019-02-17T23:19:31.701Z,4.90
2019-02-17T23:22:20.479Z,4.90
2019-02-17T23:25:09.103Z,4.80
2019-02-17T23:27:57.552Z,4.70
2019-02-17T23:30:46.354Z,4.60
2019-02-17T23:33:35.150Z,4.50
2019-02-17T23:36:23.998Z,4.40
2019-02-17T23:39:12.531Z,4.20
2019-02-17T23:42:01.283Z,4.30
2019-02-17T23:47:38.506Z,4.10
2019-02-17T23:50:27.254Z,4.00
2019-02-17T23:53:15.700Z,3.80
2019-02-17T23:56:04.452Z,3.80
2019-02-17T23:58:53.620Z,3.80
